createdAt,value
2018-04-13T00:01:06.324Z,18.30
2018-04-13T00:03:33.788Z,18.30
2018-04-13T00:06:01.272Z,18.30
2018-04-13T00:08:28.760Z,18.30
2018-04-13T00:10:57.044Z,18.20
2018-04-13T00:13:24.507Z,18.20
2018-04-13T00:15:51.982Z,18.20
2018-04-13T00:18:19.477Z,18.20
2018-04-13T00:20:47.731Z,18.10
2018-04-13T00:23:15.276Z,18.10
2018-04-13T00:25:42.736Z,18.10
2018-04-13T00:28:10.233Z,18.10
2018-04-13T00:30:37.707Z,18.10
2018-04-13T00:33:05.195Z,18.00
2018-04-13T00:35:32.667Z,18.00
2018-04-13T00:38:00.944Z,18.00
2018-04-13T00:40:28.428Z,18.00
2018-04-13T00:42:55.903Z,18.00
2018-04-13T00:45:23.478Z,18.00
2018-04-13T00:47:50.962Z,18.00
2018-04-13T00:50:19.198Z,17.90
2018-04-13T00:52:58.519Z,17.90
2018-04-13T00:55:26.653Z,17.80
2018-04-13T00:57:54.148Z,17.80
2018-04-13T01:00:21.609Z,17.80
2018-04-13T01:02:49.093Z,17.80
2018-04-13T01:05:16.609Z,17.70
2018-04-13T01:07:44.102Z,17.70
2018-04-13T01:10:12.387Z,17.70
2018-04-13T01:12:39.923Z,17.60
2018-04-13T01:15:08.161Z,17.60
2018-04-13T01:17:35.616Z,17.60
2018-04-13T01:20:03.113Z,17.60
2018-04-13T01:22:30.604Z,17.60
2018-04-13T01:24:58.103Z,17.60
2018-04-13T01:27:25.641Z,17.60
2018-04-13T01:29:53.146Z,17.50
2018-04-13T01:32:20.613Z,17.50
2018-04-13T01:34:48.861Z,17.50
2018-04-13T01:37:16.372Z,17.50
2018-04-13T01:39:43.892Z,17.50
2018-04-13T01:42:11.369Z,17.50
2018-04-13T01:44:38.944Z,17.50
2018-04-13T01:49:40.379Z,17.40
2018-04-13T01:52:08.625Z,17.40
2018-04-13T01:54:36.115Z,17.50
2018-04-13T01:57:03.874Z,17.40
2018-04-13T01:59:31.387Z,17.50
2018-04-13T02:01:59.631Z,17.40
2018-04-13T02:04:27.122Z,17.40
2018-04-13T02:06:54.592Z,17.40
2018-04-13T02:09:22.056Z,17.40
2018-04-13T02:11:49.573Z,17.40
2018-04-13T02:14:17.076Z,17.40
2018-04-13T02:16:44.576Z,17.40
2018-04-13T02:19:12.047Z,17.40
2018-04-13T02:21:39.538Z,17.40
2018-04-13T02:24:07.805Z,17.30
2018-04-13T02:26:35.312Z,17.40
2018-04-13T02:29:02.795Z,17.30
2018-04-13T02:31:30.306Z,17.30
2018-04-13T02:33:57.760Z,17.30
2018-04-13T02:36:25.252Z,17.30
2018-04-13T02:38:52.769Z,17.30
2018-04-13T02:41:20.252Z,17.30
2018-04-13T02:43:47.786Z,17.30
2018-04-13T02:46:15.261Z,17.20
2018-04-13T02:48:43.488Z,17.20
2018-04-13T02:51:10.994Z,17.20
2018-04-13T02:53:38.489Z,17.20
2018-04-13T02:56:06.769Z,17.10
2018-04-13T02:58:34.301Z,17.20
2018-04-13T03:01:01.784Z,17.10
2018-04-13T03:03:29.348Z,17.10
2018-04-13T03:05:56.825Z,17.10
2018-04-13T03:08:24.316Z,17.10
2018-04-13T03:10:52.412Z,17.10
2018-04-13T03:13:19.904Z,17.10
2018-04-13T03:15:48.171Z,17.10
2018-04-13T03:18:15.692Z,17.10
2018-04-13T03:20:43.168Z,17.10
2018-04-13T03:23:10.660Z,17.10
2018-04-13T03:25:38.181Z,17.10
2018-04-13T03:28:06.441Z,17.00
2018-04-13T03:30:33.917Z,17.00
2018-04-13T03:33:02.912Z,16.90
2018-04-13T03:35:30.405Z,17.00
2018-04-13T03:37:57.923Z,17.00
2018-04-13T03:40:25.429Z,17.00
2018-04-13T03:42:52.892Z,17.00
2018-04-13T03:45:20.373Z,16.90
2018-04-13T03:47:47.849Z,16.90
2018-04-13T03:50:15.349Z,16.90
2018-04-13T03:52:43.602Z,16.90
2018-04-13T03:55:11.096Z,16.90
2018-04-13T03:57:38.636Z,16.90
2018-04-13T04:00:06.146Z,16.80
2018-04-13T04:02:33.665Z,16.80
2018-04-13T04:05:01.171Z,16.80
2018-04-13T04:07:28.710Z,16.80
2018-04-13T04:09:56.269Z,16.80
2018-04-13T04:12:23.740Z,16.80
2018-04-13T04:14:51.212Z,16.70
2018-04-13T04:17:18.717Z,16.70
2018-04-13T04:19:57.788Z,16.70
2018-04-13T04:22:37.221Z,16.70
2018-04-13T04:25:27.487Z,16.70
2018-04-13T04:27:54.976Z,16.70
2018-04-13T04:30:22.436Z,16.60
2018-04-13T04:32:49.921Z,16.60
2018-04-13T04:35:17.401Z,16.60
2018-04-13T04:37:44.891Z,16.60
2018-04-13T04:40:12.380Z,16.60
2018-04-13T04:42:39.980Z,16.60
2018-04-13T04:45:07.464Z,16.60
2018-04-13T04:47:34.952Z,16.60
2018-04-13T04:50:02.425Z,16.60
2018-04-13T04:52:29.914Z,16.70
2018-04-13T04:54:57.391Z,16.70
2018-04-13T04:57:24.907Z,16.70
2018-04-13T04:59:52.386Z,16.70
2018-04-13T05:02:19.875Z,16.80
2018-04-13T05:04:47.351Z,16.80
2018-04-13T05:07:14.818Z,16.80
2018-04-13T05:09:42.301Z,16.90
2018-04-13T05:12:09.853Z,16.90
2018-04-13T05:14:38.077Z,17.00
2018-04-13T05:17:05.582Z,17.00
2018-04-13T05:19:33.087Z,17.10
2018-04-13T05:22:00.569Z,17.10
2018-04-13T05:24:28.756Z,17.10
2018-04-13T05:26:56.300Z,17.10
2018-04-13T05:29:23.831Z,17.20
2018-04-13T05:31:51.307Z,17.20
2018-04-13T05:34:18.815Z,17.30
2018-04-13T05:36:46.269Z,17.30
2018-04-13T05:39:14.520Z,17.40
2018-04-13T05:41:42.043Z,17.40
2018-04-13T05:44:09.508Z,17.40
2018-04-13T05:46:37.005Z,17.40
2018-04-13T05:49:04.481Z,17.50
2018-04-13T05:51:31.993Z,17.50
2018-04-13T05:53:59.475Z,17.60
2018-04-13T05:56:26.959Z,17.60
2018-04-13T05:58:55.207Z,17.70
2018-04-13T06:01:22.700Z,17.70
2018-04-13T06:03:50.173Z,17.80
2018-04-13T06:06:17.666Z,17.80
2018-04-13T06:08:45.248Z,17.90
2018-04-13T06:11:12.728Z,18.00
2018-04-13T06:13:40.227Z,18.00
2018-04-13T06:16:07.726Z,18.10
2018-04-13T06:18:35.183Z,18.20
2018-04-13T06:21:02.712Z,18.30
2018-04-13T06:23:30.272Z,18.30
2018-04-13T06:25:57.798Z,18.30
2018-04-13T06:28:25.286Z,18.40
2018-04-13T06:30:53.527Z,18.50
2018-04-13T06:33:21.019Z,18.50
2018-04-13T06:35:48.500Z,18.50
2018-04-13T06:38:15.986Z,18.60
2018-04-13T06:40:43.477Z,18.60
2018-04-13T06:43:10.966Z,18.60
2018-04-13T06:45:38.501Z,18.60
2018-04-13T06:48:05.989Z,18.60
2018-04-13T06:50:33.553Z,18.70
2018-04-13T06:53:01.049Z,18.70
2018-04-13T06:55:28.549Z,18.70
2018-04-13T06:57:56.052Z,18.70
2018-04-13T07:00:23.536Z,18.70
2018-04-13T07:02:51.038Z,18.70
2018-04-13T07:05:18.535Z,18.70
2018-04-13T07:07:46.005Z,18.80
2018-04-13T07:10:13.485Z,18.80
2018-04-13T07:12:40.968Z,18.80
2018-04-13T07:15:08.463Z,18.80
2018-04-13T07:17:35.957Z,18.80
2018-04-13T07:20:03.444Z,18.80
2018-04-13T07:22:30.942Z,18.80
2018-04-13T07:24:58.462Z,18.80
2018-04-13T07:27:26.685Z,18.80
2018-04-13T07:29:54.178Z,18.80
2018-04-13T07:32:21.653Z,18.80
2018-04-13T07:34:49.144Z,18.80
2018-04-13T07:37:16.614Z,18.80
2018-04-13T07:39:44.080Z,18.80
2018-04-13T07:42:11.778Z,18.80
2018-04-13T07:44:40.173Z,18.80
2018-04-13T07:47:07.831Z,18.80
2018-04-13T07:49:35.400Z,18.80
2018-04-13T07:52:02.960Z,18.80
2018-04-13T07:54:31.501Z,18.80
2018-04-13T07:56:59.119Z,18.80
2018-04-13T07:59:26.585Z,18.80
2018-04-13T08:01:54.138Z,18.80
2018-04-13T08:04:21.711Z,18.80
2018-04-13T08:06:49.253Z,18.80
2018-04-13T08:09:17.787Z,18.80
2018-04-13T08:11:45.314Z,18.70
2018-04-13T08:14:13.539Z,18.80
2018-04-13T08:16:41.052Z,18.70
2018-04-13T08:19:08.534Z,18.80
2018-04-13T08:21:36.044Z,18.70
2018-04-13T08:24:03.535Z,18.70
2018-04-13T08:26:31.020Z,18.60
2018-04-13T08:28:58.537Z,18.60
2018-04-13T08:31:26.005Z,18.60
2018-04-13T08:33:54.267Z,18.60
2018-04-13T08:36:21.745Z,18.50
2018-04-13T08:38:49.323Z,18.50
2018-04-13T08:41:17.507Z,18.50
2018-04-13T08:43:44.993Z,18.50
2018-04-13T08:46:13.269Z,18.40
2018-04-13T08:48:40.849Z,18.40
2018-04-13T08:51:08.260Z,18.40
2018-04-13T08:53:35.740Z,18.40
2018-04-13T08:56:03.217Z,18.40
2018-04-13T08:58:30.720Z,18.40
2018-04-13T09:00:58.275Z,18.40
2018-04-13T09:03:25.721Z,18.30
2018-04-13T09:05:53.192Z,18.30
2018-04-13T09:08:20.671Z,18.30
2018-04-13T09:10:48.160Z,18.20
2018-04-13T09:13:15.645Z,18.10
2018-04-13T09:15:43.107Z,18.10
2018-04-13T09:18:10.633Z,18.10
2018-04-13T09:20:38.566Z,18.10
2018-04-13T09:23:06.020Z,18.10
2018-04-13T09:25:33.512Z,18.10
2018-04-13T09:28:00.981Z,18.10
2018-04-13T09:30:28.472Z,18.10
2018-04-13T09:32:55.923Z,18.10
2018-04-13T09:35:23.400Z,18.10
2018-04-13T09:37:50.871Z,18.10
2018-04-13T09:40:18.355Z,18.10
2018-04-13T09:42:46.593Z,18.10
2018-04-13T09:45:14.077Z,18.10
2018-04-13T09:47:41.562Z,18.10
2018-04-13T09:50:09.259Z,18.00
2018-04-13T09:52:36.720Z,18.00
2018-04-13T09:55:04.205Z,18.00
2018-04-13T09:57:31.684Z,18.00
2018-04-13T09:59:59.935Z,18.00
2018-04-13T10:02:33.154Z,18.00
2018-04-13T10:05:00.692Z,18.00
2018-04-13T10:07:28.185Z,18.00
2018-04-13T10:09:55.663Z,18.00
2018-04-13T10:12:23.150Z,18.00
2018-04-13T10:14:51.410Z,17.90
2018-04-13T10:17:18.964Z,17.90
2018-04-13T10:19:46.453Z,17.90
2018-04-13T10:22:13.944Z,17.90
2018-04-13T10:24:42.182Z,17.90
2018-04-13T10:27:09.693Z,17.80
2018-04-13T10:29:37.169Z,17.80
2018-04-13T10:32:04.645Z,17.80
2018-04-13T10:34:32.113Z,17.70
2018-04-13T10:36:59.624Z,17.60
2018-04-13T10:39:27.899Z,17.40
2018-04-13T10:41:55.384Z,17.40
2018-04-13T10:44:22.856Z,17.40
2018-04-13T10:46:50.340Z,17.20
2018-04-13T10:49:17.858Z,17.10
2018-04-13T10:51:45.324Z,17.10
2018-04-13T10:54:12.823Z,17.00
2018-04-13T10:56:40.280Z,16.90
2018-04-13T10:59:07.773Z,16.80
2018-04-13T11:01:35.266Z,16.70
2018-04-13T11:04:02.763Z,16.70
2018-04-13T11:06:31.622Z,16.60
2018-04-13T11:08:59.114Z,16.50
2018-04-13T11:11:27.401Z,16.40
2018-04-13T11:13:54.898Z,16.40
2018-04-13T11:16:23.146Z,16.40
2018-04-13T11:18:50.661Z,16.40
2018-04-13T11:21:18.968Z,16.40
2018-04-13T11:23:46.492Z,16.30
2018-04-13T11:26:13.982Z,16.30
2018-04-13T11:28:41.513Z,16.30
2018-04-13T11:31:09.761Z,16.20
2018-04-13T11:33:37.288Z,16.20
2018-04-13T11:36:04.746Z,16.20
2018-04-13T11:38:32.211Z,16.20
2018-04-13T11:40:59.707Z,16.20
2018-04-13T11:43:27.172Z,16.10
2018-04-13T11:45:54.672Z,16.10
2018-04-13T11:48:22.891Z,16.10
2018-04-13T11:50:50.609Z,16.10
2018-04-13T11:53:18.078Z,16.00
2018-04-13T11:55:45.566Z,16.00
2018-04-13T11:58:13.027Z,16.00
2018-04-13T12:00:40.512Z,16.00
2018-04-13T12:03:08.031Z,16.00
2018-04-13T12:05:35.621Z,16.00
2018-04-13T12:08:03.088Z,15.90
2018-04-13T12:10:30.573Z,15.90
2018-04-13T12:12:58.041Z,15.90
2018-04-13T12:15:25.533Z,15.90
2018-04-13T12:17:53.053Z,15.90
2018-04-13T12:20:20.546Z,15.90
2018-04-13T12:22:48.977Z,15.80
2018-04-13T12:25:16.635Z,15.80
2018-04-13T12:27:44.153Z,15.80
2018-04-13T12:30:12.395Z,15.80
2018-04-13T12:32:39.868Z,15.70
2018-04-13T12:35:07.387Z,15.70
2018-04-13T12:37:35.659Z,15.70
2018-04-13T12:40:03.884Z,15.70
2018-04-13T12:42:31.396Z,15.70
2018-04-13T12:44:58.864Z,15.60
2018-04-13T12:47:26.390Z,15.70
2018-04-13T12:49:53.873Z,15.70
2018-04-13T12:52:21.361Z,15.70
2018-04-13T12:54:49.043Z,15.70
2018-04-13T12:57:16.337Z,15.70
2018-04-13T12:59:43.800Z,15.70
2018-04-13T13:02:11.302Z,15.70
2018-04-13T13:04:38.763Z,15.70
2018-04-13T13:07:06.249Z,15.80
2018-04-13T13:09:33.719Z,15.80
2018-04-13T13:12:01.224Z,15.80
2018-04-13T13:14:28.693Z,15.90
2018-04-13T13:16:56.253Z,15.90
2018-04-13T13:19:23.730Z,15.90
2018-04-13T13:21:51.200Z,15.90
2018-04-13T13:24:18.688Z,16.00
2018-04-13T13:26:46.925Z,16.00
2018-04-13T13:29:15.176Z,16.00
2018-04-13T13:31:42.668Z,16.00
2018-04-13T13:34:10.183Z,16.00
2018-04-13T13:36:37.653Z,16.00
2018-04-13T13:39:05.870Z,15.90
2018-04-13T13:41:33.345Z,15.90
2018-04-13T13:44:00.843Z,16.00
2018-04-13T13:46:29.083Z,16.00
2018-04-13T13:48:56.595Z,15.90
2018-04-13T13:51:24.053Z,16.00
2018-04-13T13:53:51.573Z,16.00
2018-04-13T13:56:19.069Z,16.00
2018-04-13T13:58:46.544Z,16.00
2018-04-13T14:01:14.028Z,16.00
2018-04-13T14:03:41.518Z,16.00
2018-04-13T14:06:09.006Z,16.00
2018-04-13T14:08:37.260Z,16.00
2018-04-13T14:11:04.735Z,16.00
2018-04-13T14:13:33.005Z,16.00
2018-04-13T14:16:00.531Z,16.00
2018-04-13T14:18:28.786Z,16.00
2018-04-13T14:20:56.281Z,16.00
2018-04-13T14:23:23.818Z,16.00
2018-04-13T14:25:52.228Z,16.00
2018-04-13T14:28:19.757Z,16.00
2018-04-13T14:30:47.252Z,16.00
2018-04-13T14:33:14.723Z,16.00
2018-04-13T14:35:42.967Z,16.00
2018-04-13T14:38:11.201Z,15.90
2018-04-13T14:40:38.709Z,15.90
2018-04-13T14:43:06.936Z,15.90
2018-04-13T14:45:34.451Z,15.90
2018-04-13T14:48:01.956Z,15.90
2018-04-13T14:50:30.219Z,15.90
2018-04-13T14:52:57.681Z,15.80
2018-04-13T14:55:25.210Z,15.80
2018-04-13T14:57:52.656Z,15.90
2018-04-13T15:00:20.912Z,15.80
2018-04-13T15:02:48.418Z,15.80
2018-04-13T15:05:16.665Z,15.70
2018-04-13T15:07:44.173Z,15.70
2018-04-13T15:10:12.421Z,15.70
2018-04-13T15:12:39.922Z,15.70
2018-04-13T15:15:07.495Z,15.70
2018-04-13T15:17:34.977Z,15.70
2018-04-13T15:20:03.214Z,15.70
2018-04-13T15:22:30.753Z,15.70
2018-04-13T15:24:58.213Z,15.70
2018-04-13T15:27:26.465Z,15.60
2018-04-13T15:29:53.953Z,15.60
2018-04-13T15:32:21.445Z,15.70
2018-04-13T15:34:49.689Z,15.60
2018-04-13T15:37:17.166Z,15.60
2018-04-13T15:39:44.708Z,15.60
2018-04-13T15:42:12.208Z,15.60
2018-04-13T15:44:39.737Z,15.60
2018-04-13T15:47:07.214Z,15.60
2018-04-13T15:49:34.709Z,15.60
2018-04-13T15:52:02.188Z,15.60
2018-04-13T15:54:29.672Z,15.60
2018-04-13T15:56:57.932Z,15.60
2018-04-13T15:59:25.417Z,15.60
2018-04-13T16:01:52.882Z,15.60
2018-04-13T16:04:21.151Z,15.60
2018-04-13T16:06:48.684Z,15.60
2018-04-13T16:09:16.143Z,15.60
2018-04-13T16:11:43.609Z,15.60
2018-04-13T16:14:11.213Z,15.60
2018-04-13T16:16:39.464Z,15.70
2018-04-13T16:19:06.963Z,15.70
2018-04-13T16:21:35.217Z,15.70
2018-04-13T16:24:02.712Z,15.70
2018-04-13T16:26:30.967Z,15.70
2018-04-13T16:28:58.460Z,15.70
2018-04-13T16:31:25.949Z,15.70
2018-04-13T16:33:54.181Z,15.70
2018-04-13T16:36:21.718Z,15.70
2018-04-13T16:38:49.982Z,15.70
2018-04-13T16:41:17.449Z,15.70
2018-04-13T16:43:44.960Z,15.70
2018-04-13T16:46:12.573Z,15.70
2018-04-13T16:48:40.087Z,15.70
2018-04-13T16:51:08.350Z,15.70
2018-04-13T16:53:36.634Z,15.80
2018-04-13T16:56:04.166Z,15.80
2018-04-13T16:58:31.716Z,15.80
2018-04-13T17:00:59.957Z,15.80
2018-04-13T17:03:27.448Z,15.80
2018-04-13T17:05:54.908Z,15.80
2018-04-13T17:08:22.392Z,15.80
2018-04-13T17:10:49.885Z,15.80
2018-04-13T17:13:18.154Z,15.80
2018-04-13T17:15:45.627Z,15.80
2018-04-13T17:18:13.096Z,15.80
2018-04-13T17:20:40.568Z,15.40
2018-04-13T17:23:08.032Z,15.80
2018-04-13T17:25:35.520Z,15.80
2018-04-13T17:28:03.039Z,15.80
2018-04-13T17:30:30.524Z,15.80
2018-04-13T17:32:58.006Z,15.80
2018-04-13T17:35:25.488Z,15.80
2018-04-13T17:37:54.463Z,15.80
2018-04-13T17:40:21.951Z,15.90
2018-04-13T17:42:49.421Z,15.90
2018-04-13T17:45:16.983Z,15.90
2018-04-13T17:47:44.450Z,15.90
2018-04-13T17:50:11.984Z,15.90
2018-04-13T17:52:40.224Z,15.90
2018-04-13T17:55:07.701Z,15.90
2018-04-13T17:57:35.232Z,16.00
2018-04-13T18:00:02.717Z,16.00
2018-04-13T18:02:30.205Z,16.00
2018-04-13T18:04:57.693Z,16.00
2018-04-13T18:07:25.194Z,16.00
2018-04-13T18:09:52.669Z,16.00
2018-04-13T18:12:20.937Z,16.10
2018-04-13T18:14:48.405Z,16.00
2018-04-13T18:17:15.932Z,16.10
2018-04-13T18:19:43.393Z,16.10
2018-04-13T18:22:10.883Z,16.10
2018-04-13T18:24:38.353Z,16.20
2018-04-13T18:27:05.832Z,16.20
2018-04-13T18:29:33.311Z,16.20
2018-04-13T18:32:00.836Z,16.20
2018-04-13T18:34:29.073Z,16.30
2018-04-13T18:36:56.547Z,16.20
2018-04-13T18:39:24.060Z,16.30
2018-04-13T18:41:52.338Z,16.30
2018-04-13T18:44:20.321Z,16.30
2018-04-13T18:46:47.793Z,16.30
2018-04-13T18:49:15.295Z,16.40
2018-04-13T18:51:42.776Z,16.30
2018-04-13T18:54:10.332Z,16.40
2018-04-13T18:56:37.827Z,16.40
2018-04-13T18:59:05.321Z,16.40
2018-04-13T19:01:32.820Z,16.40
2018-04-13T19:04:01.094Z,16.40
2018-04-13T19:06:28.573Z,16.40
2018-04-13T19:08:56.064Z,16.40
2018-04-13T19:11:24.315Z,16.50
2018-04-13T19:13:51.813Z,16.40
2018-04-13T19:16:19.276Z,16.50
2018-04-13T19:18:46.759Z,16.50
2018-04-13T19:21:15.012Z,16.50
2018-04-13T19:23:43.239Z,16.50
2018-04-13T19:26:11.120Z,16.50
2018-04-13T19:28:38.564Z,16.50
2018-04-13T19:31:06.179Z,16.50
2018-04-13T19:33:34.580Z,16.50
2018-04-13T19:36:02.160Z,16.50
2018-04-13T19:38:29.735Z,16.50
2018-04-13T19:40:57.350Z,16.50
2018-04-13T19:43:24.829Z,16.50
2018-04-13T19:45:52.440Z,16.50
2018-04-13T19:48:20.186Z,16.50
2018-04-13T19:50:47.845Z,16.50
2018-04-13T19:53:15.666Z,16.50
2018-04-13T19:55:43.294Z,16.50
2018-04-13T19:58:11.091Z,16.50
2018-04-13T20:00:38.711Z,16.50
2018-04-13T20:03:06.514Z,16.50
2018-04-13T20:05:34.187Z,16.50
2018-04-13T20:08:01.962Z,16.50
2018-04-13T20:10:30.539Z,16.50
2018-04-13T20:12:58.193Z,16.50
2018-04-13T20:15:25.798Z,16.50
2018-04-13T20:17:54.111Z,16.40
2018-04-13T20:20:22.529Z,16.40
2018-04-13T20:22:50.136Z,16.40
2018-04-13T20:25:17.597Z,16.40
2018-04-13T20:27:45.090Z,16.40
2018-04-13T20:30:12.576Z,16.30
2018-04-13T20:32:40.043Z,16.30
2018-04-13T20:35:07.525Z,16.30
2018-04-13T20:37:35.003Z,16.30
2018-04-13T20:40:02.483Z,16.30
2018-04-13T20:42:29.960Z,16.30
2018-04-13T20:44:57.460Z,16.30
2018-04-13T20:47:24.946Z,16.30
2018-04-13T20:49:52.434Z,16.30
2018-04-13T20:52:19.933Z,16.30
2018-04-13T20:54:47.421Z,16.40
2018-04-13T20:57:14.921Z,16.40
2018-04-13T20:59:42.415Z,16.40
2018-04-13T21:02:09.895Z,16.40
2018-04-13T21:04:37.400Z,16.40
2018-04-13T21:07:04.879Z,16.50
2018-04-13T21:09:32.356Z,16.50
2018-04-13T21:12:00.608Z,16.50
2018-04-13T21:14:28.076Z,16.50
2018-04-13T21:16:55.557Z,16.50
2018-04-13T21:19:23.028Z,16.50
2018-04-13T21:21:50.521Z,16.50
2018-04-13T21:24:17.995Z,16.50
2018-04-13T21:26:45.478Z,16.50
2018-04-13T21:29:13.708Z,16.40
2018-04-13T21:31:41.230Z,16.50
2018-04-13T21:34:09.486Z,16.40
2018-04-13T21:36:37.020Z,16.40
2018-04-13T21:39:04.612Z,16.40
2018-04-13T21:41:32.135Z,16.40
2018-04-13T21:43:59.641Z,16.40
2018-04-13T21:46:27.114Z,16.40
2018-04-13T21:48:54.604Z,16.40
2018-04-13T21:51:22.077Z,16.30
2018-04-13T21:53:49.565Z,16.30
2018-04-13T21:56:17.049Z,16.30
2018-04-13T21:58:44.538Z,16.30
2018-04-13T22:01:12.788Z,16.20
2018-04-13T22:03:40.307Z,16.20
2018-04-13T22:06:08.608Z,16.20
2018-04-13T22:08:36.162Z,16.10
2018-04-13T22:11:04.403Z,16.10
2018-04-13T22:13:32.685Z,16.10
2018-04-13T22:16:00.210Z,16.10
2018-04-13T22:18:28.464Z,16.00
2018-04-13T22:20:55.953Z,16.00
2018-04-13T22:23:23.423Z,15.90
2018-04-13T22:25:50.899Z,15.90
2018-04-13T22:28:18.387Z,15.80
2018-04-13T22:30:46.638Z,15.80
2018-04-13T22:33:14.114Z,15.70
2018-04-13T22:35:41.624Z,15.70
2018-04-13T22:38:09.105Z,15.70
2018-04-13T22:40:36.594Z,15.70
2018-04-13T22:43:04.072Z,15.60
2018-04-13T22:45:31.576Z,15.60
2018-04-13T22:47:59.052Z,15.60
2018-04-13T22:50:26.528Z,15.50
2018-04-13T22:52:54.004Z,15.50
2018-04-13T22:55:22.245Z,15.50
2018-04-13T22:57:49.747Z,15.50
2018-04-13T23:00:17.217Z,15.40
2018-04-13T23:02:44.715Z,15.40
2018-04-13T23:05:12.936Z,15.30
2018-04-13T23:07:40.432Z,15.30
2018-04-13T23:10:07.896Z,15.30
2018-04-13T23:12:35.391Z,15.30
2018-04-13T23:15:02.860Z,15.30
2018-04-13T23:17:30.417Z,15.30
2018-04-13T23:19:58.664Z,15.20
2018-04-13T23:22:38.171Z,15.20
2018-04-13T23:25:05.653Z,15.30
2018-04-13T23:27:33.164Z,15.20
2018-04-13T23:30:00.677Z,15.20
2018-04-13T23:32:28.943Z,15.10
2018-04-13T23:34:56.425Z,15.10
2018-04-13T23:37:23.919Z,15.10
2018-04-13T23:39:51.417Z,15.10
2018-04-13T23:42:19.660Z,15.00
2018-04-13T23:44:47.760Z,15.00
2018-04-13T23:47:15.223Z,15.00
2018-04-13T23:49:42.700Z,14.90
2018-04-13T23:52:10.176Z,14.90
2018-04-13T23:54:37.697Z,14.90
2018-04-13T23:57:05.270Z,14.90
2018-04-13T23:59:32.765Z,14.80
